Bangkok, Thaïlande

22:08 ICT le 30 juillet 2014 (GMT +0700)
Bangkok International (VTBD) Alt. 13 ft | 13.92 °N, 100.61 °E | Change Station

Current weather conditions updated 8 minutes ago

Mostly Cloudy
Nuageux
79 ° F
Paraît 79 ° F
N
4
Vent Variable Vent de SE

Demain il est prévu de faire plus froid qu’aujourd’hui. Orages se formant au cours de l'après-midi..

Aujourd'hui
Haut(e) -- | Bas -- ° F
--% Risque de précip.
Hier
Haut(e) -- | Bas -- ° F
Precip. -- pouce
6:01 AM 6:46 PM
Lune montante, 12% visible
Pression 29.77 pouce
Visibilité 6.2 Miles terrestres
Nuages Peu 2000 ft
Nuageux 12000 ft
Nuageux 30000 ft
Point de rosée 75 ° F
Humidité 89%
Précipitations 0.00 pouce
Profondeur de la couche neigeuse Non disponible.
UV 0 sur 12
Pollen Non disponible.
Qualité de l'air Non disponible.
Flu Activity Non disponible.
METAR VTBD 301500Z 13003KT 9999 FEW020 BKN120 BKN300 26/24 Q1008 NOSIG

More Conditions Fewer Conditions

Pression 29.77 pouce
Visibilité 6.2 Miles terrestres
Nuages Peu 2000 ft
Nuageux 12000 ft
Nuageux 30000 ft
Point de rosée 75 ° F
Humidité 89%
Précipitations 0.00 pouce
Profondeur de la couche neigeuse Non disponible.
UV 0 sur 12
Pollen Non disponible.
Qualité de l'air Non disponible.
Flu Activity Non disponible.
METAR VTBD 301500Z 13003KT 9999 FEW020 BKN120 BKN300 26/24 Q1008 NOSIG

More Conditions Fewer Conditions

10-Day Weather Forecast

Almanac

Astronomie

Jul. 30, 2014 Lever Coucher
Temps réel 06:01 ICT 18:46 ICT
Crépuscule civil 05:38 ICT 19:09 ICT
Crépuscule nautique 05:12 ICT 19:35 ICT
Crépuscule astronomique 04:44 ICT 20:02 ICT
Lune 08:26 ICT 20:54 ICT
Durée de lumière visible 13h 30m
Longueur du jour
12h 45m
Tomorrow will be 0m 33s shorter.
Lune montante, 12% of the Moon is Illuminated
Aujourd'hui
Lune montante
août 3
Premier quartier
août 10
Pleine lune
août 17
Dernier quartier
août 25
Nouveau

Extrêmes aujourd'hui

Country Highs Country Lows

Community

WunderPhotos

Upload Photos

1,739,107 Photos téléchargées !

WunderBlogs® & News

By Dr. Jeff Masters
Director of Meteorology, Weather Underground
By Kari Strenfel
Meteorologist, Weather Underground
By Christopher C. Burt
Weather Historian, Weather Underground
July 30, 2014
July 30, 2014
July 30, 2014

Nearby

Qualité de l'air

Not available.

Épaisseur de neige

Not available.

Activité sismique

Ville Distance Mag. Time & Date
No recent earthquake activity has been reported nearby.
Minimum magnitude displayed is 2.5.

Températures des eaux côtières

Lieu Température
Aucun rapport de station

Stations météo à proximité

Emplacement de la station Température indice de chaleur Point de rosée Humidité Vent Precip. Alt. Mise à jour Type
Patumwan Demonstration School, Bangkok 79.9 ° F 85 ° F 77 ° F 90% ESE  à  1.0 mph 0.01 pouce / hr 46 ft 10:00 PM ICT Normal
Dokmai, Pravet, Bangkok 78.3 ° F 80 ° F 68 ° F 70% Est  à  0.0 mph 0.00 pouce / hr 10 ft 10:08 PM ICT Rapid Fire (temps réel)

Show More Stations Show Fewer Stations